createdAt,value
2022-10-12T00:04:17.305Z,65.80
2022-10-12T00:09:38.079Z,65.48
2022-10-12T00:14:58.676Z,65.18
2022-10-12T00:20:19.476Z,65.35
2022-10-12T00:25:41.518Z,65.50
2022-10-12T00:31:07.653Z,66.25
2022-10-12T00:36:32.603Z,66.46
2022-10-12T00:41:53.699Z,66.40
2022-10-12T00:47:29.575Z,65.89
2022-10-12T00:52:53.590Z,65.48
2022-10-12T00:58:15.164Z,65.22
2022-10-12T01:03:36.836Z,65.55
2022-10-12T01:08:58.152Z,65.73
2022-10-12T01:14:19.646Z,65.88
2022-10-12T01:20:10.592Z,66.45
2022-10-12T01:25:56.661Z,66.59
2022-10-12T01:31:30.059Z,66.21
2022-10-12T01:37:21.416Z,66.45
2022-10-12T01:42:44.490Z,65.80
2022-10-12T01:48:05.870Z,66.19
2022-10-12T01:53:34.171Z,66.56
2022-10-12T01:59:11.511Z,66.19
2022-10-12T02:04:58.600Z,66.31
2022-10-12T02:10:35.522Z,66.13
2022-10-12T02:16:00.616Z,66.26
2022-10-12T02:21:26.132Z,66.38
2022-10-12T02:26:49.466Z,66.43
2022-10-12T02:32:19.193Z,65.91
2022-10-12T02:38:18.651Z,65.77
2022-10-12T02:43:48.106Z,66.28
2022-10-12T02:49:11.743Z,66.78
2022-10-12T02:54:32.393Z,66.50
2022-10-12T02:59:53.188Z,66.88
2022-10-12T03:05:13.886Z,66.67
2022-10-12T03:10:34.633Z,66.57
2022-10-12T03:16:01.588Z,66.38
2022-10-12T03:21:22.363Z,66.41
2022-10-12T03:26:43.128Z,66.35
2022-10-12T03:32:03.776Z,66.97
2022-10-12T03:37:24.498Z,66.98
2022-10-12T03:42:45.211Z,66.87
2022-10-12T03:48:07.142Z,66.65
2022-10-12T03:53:27.926Z,66.44
2022-10-12T03:58:48.542Z,66.40
2022-10-12T04:04:10.874Z,66.41
2022-10-12T04:09:31.680Z,66.58
2022-10-12T04:14:54.614Z,66.74
2022-10-12T04:20:15.510Z,66.98
2022-10-12T04:25:36.058Z,66.90
2022-10-12T04:30:56.412Z,66.85
2022-10-12T04:36:16.976Z,67.28
2022-10-12T04:41:39.584Z,67.23
2022-10-12T04:47:03.126Z,67.20
2022-10-12T04:52:23.864Z,66.90
2022-10-12T04:57:44.576Z,67.13
2022-10-12T05:03:05.667Z,67.01
2022-10-12T05:08:26.526Z,67.11
2022-10-12T05:13:47.611Z,67.47
2022-10-12T05:19:08.371Z,67.36
2022-10-12T05:24:29.097Z,66.88
2022-10-12T05:29:49.630Z,66.71
2022-10-12T05:35:11.329Z,66.97
2022-10-12T05:40:32.970Z,66.90
2022-10-12T05:45:53.487Z,66.79
2022-10-12T05:51:14.324Z,67.31
2022-10-12T05:56:34.841Z,67.21
2022-10-12T06:01:55.575Z,66.99
2022-10-12T06:07:16.211Z,67.42
2022-10-12T06:12:37.283Z,67.59
2022-10-12T06:17:58.304Z,67.60
2022-10-12T06:23:20.242Z,67.31
2022-10-12T06:28:41.701Z,67.68
2022-10-12T06:34:02.257Z,67.87
2022-10-12T06:39:25.617Z,68.10
2022-10-12T06:44:46.593Z,67.31
2022-10-12T06:50:08.931Z,67.39
2022-10-12T06:55:29.699Z,67.39
2022-10-12T07:00:50.703Z,67.40
2022-10-12T07:06:14.059Z,67.22
2022-10-12T07:11:35.088Z,68.12
2022-10-12T07:16:55.822Z,67.72
2022-10-12T07:22:16.387Z,67.29
2022-10-12T07:27:37.446Z,67.03
2022-10-12T07:32:58.267Z,66.90
2022-10-12T07:38:18.824Z,66.62
2022-10-12T07:43:39.436Z,66.69
2022-10-12T07:49:00.309Z,66.66
2022-10-12T07:54:26.796Z,66.71
2022-10-12T07:59:49.717Z,66.56
2022-10-12T08:05:10.473Z,66.60
2022-10-12T08:10:34.311Z,65.83
2022-10-12T08:15:55.242Z,66.27
2022-10-12T08:21:17.434Z,66.22
2022-10-12T08:26:38.634Z,65.82
2022-10-12T08:32:01.838Z,65.38
2022-10-12T08:37:22.873Z,64.93
2022-10-12T08:42:56.646Z,64.94
2022-10-12T08:48:24.571Z,64.98
2022-10-12T08:53:55.742Z,65.17
2022-10-12T08:59:19.018Z,65.23
2022-10-12T09:04:59.601Z,65.27
2022-10-12T09:10:20.516Z,65.49
2022-10-12T09:15:52.944Z,64.96
2022-10-12T09:21:18.315Z,65.45
2022-10-12T09:26:42.080Z,67.49
2022-10-12T09:32:49.224Z,65.37
2022-10-12T09:38:10.698Z,64.74
2022-10-12T09:43:31.609Z,64.56
2022-10-12T09:49:00.420Z,64.87
2022-10-12T09:54:28.380Z,64.98
2022-10-12T09:59:49.821Z,64.62
2022-10-12T10:05:34.283Z,64.22
2022-10-12T10:10:57.034Z,64.33
2022-10-12T10:16:20.286Z,64.43
2022-10-12T10:21:42.031Z,63.36
2022-10-12T10:27:04.935Z,63.29
2022-10-12T10:32:29.989Z,63.15
2022-10-12T10:38:00.989Z,63.15
2022-10-12T10:43:30.622Z,63.10
2022-10-12T10:48:53.635Z,62.63
2022-10-12T10:54:23.701Z,62.74
2022-10-12T10:59:47.319Z,62.62
2022-10-12T11:05:16.910Z,62.20
2022-10-12T11:10:46.780Z,62.51
2022-10-12T11:16:28.639Z,62.55
2022-10-12T11:21:54.673Z,62.88
2022-10-12T11:27:25.827Z,62.24
2022-10-12T11:32:52.618Z,62.17
2022-10-12T11:38:42.514Z,62.10
2022-10-12T11:44:24.132Z,61.84
2022-10-12T11:49:59.843Z,61.47
2022-10-12T11:55:38.560Z,61.38
2022-10-12T12:01:17.628Z,60.55
2022-10-12T12:07:02.738Z,61.12
2022-10-12T12:12:29.049Z,60.99
2022-10-12T12:18:29.108Z,60.25
2022-10-12T12:23:53.525Z,60.79
2022-10-12T12:29:26.853Z,60.72
2022-10-12T12:35:00.729Z,60.82
2022-10-12T12:40:23.056Z,60.73
2022-10-12T12:45:55.690Z,61.01
2022-10-12T12:51:20.546Z,60.74
2022-10-12T12:57:07.647Z,60.50
2022-10-12T13:03:19.534Z,60.85
2022-10-12T13:09:08.623Z,61.07
2022-10-12T13:14:53.864Z,61.32
2022-10-12T13:20:17.798Z,61.26
2022-10-12T13:25:48.282Z,61.02
2022-10-12T13:31:18.253Z,61.20
2022-10-12T13:37:10.699Z,61.50
2022-10-12T13:42:34.896Z,61.47
2022-10-12T13:48:04.459Z,61.37
2022-10-12T13:53:33.747Z,61.45
2022-10-12T13:59:04.253Z,61.62
2022-10-12T14:04:30.132Z,61.78
2022-10-12T14:10:17.071Z,61.72
2022-10-12T14:15:40.592Z,61.59
2022-10-12T14:21:26.872Z,62.05
2022-10-12T14:26:57.831Z,63.66
2022-10-12T14:32:26.856Z,62.25
2022-10-12T14:37:48.606Z,62.01
2022-10-12T14:43:12.527Z,61.82
2022-10-12T14:48:33.278Z,61.74
2022-10-12T14:54:04.171Z,61.50
2022-10-12T14:59:24.900Z,61.61
2022-10-12T15:04:46.387Z,61.69
2022-10-12T15:10:08.092Z,61.77
2022-10-12T15:15:40.731Z,61.77
2022-10-12T15:21:01.718Z,61.77
2022-10-12T15:26:23.367Z,61.83
2022-10-12T15:31:47.698Z,62.22
2022-10-12T15:37:11.728Z,62.18
2022-10-12T15:42:32.440Z,63.87
2022-10-12T15:47:53.901Z,63.49
2022-10-12T15:53:24.357Z,63.25
2022-10-12T15:58:45.690Z,62.97
2022-10-12T16:04:07.115Z,62.59
2022-10-12T16:09:28.148Z,62.69
2022-10-12T16:14:48.820Z,62.44
2022-10-12T16:20:10.689Z,62.05
2022-10-12T16:25:31.623Z,62.16
2022-10-12T16:30:52.960Z,63.56
2022-10-12T16:36:16.290Z,62.63
2022-10-12T16:41:37.239Z,63.76
2022-10-12T16:46:58.044Z,62.51
2022-10-12T16:52:19.840Z,62.61
2022-10-12T16:57:41.429Z,62.68
2022-10-12T17:03:02.093Z,62.52
2022-10-12T17:08:22.794Z,62.77
2022-10-12T17:13:48.770Z,62.57
2022-10-12T17:19:09.890Z,62.88
2022-10-12T17:24:32.350Z,62.67
2022-10-12T17:29:53.568Z,62.58
2022-10-12T17:35:14.749Z,62.45
2022-10-12T17:40:39.287Z,62.53
2022-10-12T17:46:00.278Z,62.63
2022-10-12T17:51:20.935Z,62.62
2022-10-12T17:56:44.113Z,62.65
2022-10-12T18:02:09.222Z,62.71
2022-10-12T18:07:30.309Z,63.04
2022-10-12T18:12:52.251Z,62.92
2022-10-12T18:18:15.243Z,62.96
2022-10-12T18:23:36.942Z,62.90
2022-10-12T18:29:00.609Z,63.31
2022-10-12T18:34:21.394Z,62.74
2022-10-12T18:39:44.033Z,63.22
2022-10-12T18:45:05.462Z,63.37
2022-10-12T18:50:26.957Z,63.21
2022-10-12T18:55:48.615Z,63.34
2022-10-12T19:01:14.939Z,63.87
2022-10-12T19:06:38.169Z,63.57
2022-10-12T19:11:59.081Z,63.67
2022-10-12T19:17:23.159Z,63.82
2022-10-12T19:22:43.809Z,64.09
2022-10-12T19:28:04.503Z,63.90
2022-10-12T19:33:27.322Z,64.29
2022-10-12T19:38:48.404Z,64.15
2022-10-12T19:44:11.407Z,63.89
2022-10-12T19:49:36.622Z,64.25
2022-10-12T19:54:58.607Z,64.19
2022-10-12T20:00:19.740Z,64.07
2022-10-12T20:05:46.403Z,64.18
2022-10-12T20:11:08.865Z,64.00
2022-10-12T20:16:35.047Z,64.06
2022-10-12T20:21:56.084Z,64.30
2022-10-12T20:27:17.181Z,64.53
2022-10-12T20:32:38.149Z,64.66
2022-10-12T20:38:00.009Z,64.36
2022-10-12T20:43:20.972Z,64.23
2022-10-12T20:48:44.453Z,64.54
2022-10-12T20:54:06.578Z,64.30
2022-10-12T20:59:27.122Z,64.76
2022-10-12T21:04:51.245Z,64.25
2022-10-12T21:10:11.993Z,64.35
2022-10-12T21:15:32.567Z,64.64
2022-10-12T21:20:58.524Z,64.31
2022-10-12T21:26:21.757Z,64.89
2022-10-12T21:31:42.602Z,64.15
2022-10-12T21:37:03.412Z,63.94
2022-10-12T21:42:24.154Z,64.40
2022-10-12T21:47:44.701Z,63.70
2022-10-12T21:53:05.189Z,63.94
2022-10-12T21:58:26.011Z,63.58
2022-10-12T22:03:49.841Z,63.43
2022-10-12T22:09:16.893Z,63.66
2022-10-12T22:14:37.451Z,63.61
2022-10-12T22:19:58.351Z,64.05
2022-10-12T22:25:18.913Z,64.07
2022-10-12T22:30:40.129Z,64.30
2022-10-12T22:36:01.563Z,64.37
2022-10-12T22:41:23.413Z,64.24
2022-10-12T22:46:44.319Z,64.40
2022-10-12T22:52:05.079Z,64.11
2022-10-12T22:57:30.118Z,63.87
2022-10-12T23:02:50.629Z,64.35
2022-10-12T23:08:11.157Z,64.34
2022-10-12T23:13:33.052Z,64.27
2022-10-12T23:18:59.818Z,64.54
2022-10-12T23:24:20.426Z,64.18
2022-10-12T23:29:41.095Z,64.18
2022-10-12T23:35:02.347Z,64.07
2022-10-12T23:40:22.875Z,64.14
2022-10-12T23:45:44.287Z,64.30
2022-10-12T23:51:09.747Z,64.36
2022-10-12T23:56:30.446Z,64.57
